Time;durP1;ratioP1;P1;durP2;ratioP2;P2;SDS_P1;SDS_P2;PMS_P1;PMS_P2;Temp;Humidity;BMP_temperature;BMP_pressure;BME280_temperature;BME280_humidity;BME280_pressure;Samples;Min_cycle;Max_cycle;Signal;HPM_P1;HPM_P2
2023/04/03 00:01:40;;;;;;;5.85;4.22;;;20.80;56.30;;;;;;5015450;28;20186;-72
2023/04/03 00:04:06;;;;;;;7.95;4.18;;;20.80;56.30;;;;;;5014373;28;20112;-72
2023/04/03 00:06:32;;;;;;;6.15;4.35;;;20.80;56.30;;;;;;5015703;28;20037;-72
2023/04/03 00:08:58;;;;;;;6.80;4.47;;;20.80;56.20;;;;;;5015377;28;20022;-72
2023/04/03 00:11:25;;;;;;;7.15;4.40;;;20.80;56.20;;;;;;5015114;28;20026;-72
2023/04/03 00:13:50;;;;;;;5.22;3.85;;;20.80;56.20;;;;;;5015377;28;20029;-72
2023/04/03 00:16:17;;;;;;;6.72;4.38;;;20.70;56.10;;;;;;5015321;28;20365;-72
2023/04/03 00:18:43;;;;;;;6.90;4.20;;;20.70;56.10;;;;;;5015241;28;20029;-73
2023/04/03 00:21:12;;;;;;;7.55;4.38;;;20.80;56.10;;;;;;5015030;28;20033;-72
2023/04/03 00:23:38;;;;;;;6.80;4.30;;;20.80;56.10;;;;;;5015217;28;20034;-72
2023/04/03 00:26:04;;;;;;;5.93;4.15;;;20.80;56.10;;;;;;5014958;28;20038;-72
2023/04/03 00:28:31;;;;;;;7.75;4.43;;;20.70;56.00;;;;;;5015023;28;20500;-72
2023/04/03 00:30:57;;;;;;;6.60;4.10;;;20.70;56.00;;;;;;5014931;28;20442;-71
2023/04/03 00:33:24;;;;;;;7.03;4.15;;;20.80;56.00;;;;;;5015101;28;20431;-72
2023/04/03 00:35:50;;;;;;;6.90;4.53;;;20.70;55.90;;;;;;5015041;28;20492;-72
2023/04/03 00:38:16;;;;;;;7.43;4.40;;;20.70;55.90;;;;;;5014697;28;20029;-72
2023/04/03 00:40:45;;;;;;;6.30;3.92;;;20.70;55.80;;;;;;5014687;28;20033;-72
2023/04/03 00:43:14;;;;;;;5.47;4.10;;;20.70;55.80;;;;;;5014553;28;20079;-73
2023/04/03 00:45:43;;;;;;;5.07;3.95;;;20.70;55.70;;;;;;5014801;28;20033;-73
2023/04/03 00:48:38;;;;;;;7.47;4.15;;;20.70;55.70;;;;;;5014749;28;20387;-73
2023/04/03 00:51:07;;;;;;;5.03;3.78;;;20.70;55.60;;;;;;5009360;28;20030;-73
2023/04/03 00:53:37;;;;;;;4.90;3.58;;;20.70;55.50;;;;;;5014547;28;20038;-72
2023/04/03 00:56:09;;;;;;;6.40;3.88;;;20.70;55.50;;;;;;5014584;28;20384;-72
2023/04/03 00:58:44;;;;;;;5.15;3.92;;;20.70;55.50;;;;;;5014825;28;20169;-72
2023/04/03 01:01:15;;;;;;;5.47;3.78;;;20.70;55.40;;;;;;5014933;28;20030;-72
2023/04/03 01:03:41;;;;;;;5.30;3.80;;;20.70;55.40;;;;;;5014258;28;20026;-72
2023/04/03 01:06:08;;;;;;;6.10;4.00;;;20.70;55.30;;;;;;5014392;28;20396;-72
2023/04/03 01:08:35;;;;;;;5.60;4.13;;;20.70;55.30;;;;;;5014393;28;20034;-72
2023/04/03 01:11:00;;;;;;;6.40;4.13;;;20.70;55.30;;;;;;5014244;28;20027;-72
2023/04/03 01:13:32;;;;;;;5.75;3.90;;;20.70;55.20;;;;;;5014211;28;20050;-72
2023/04/03 01:16:03;;;;;;;5.05;3.78;;;20.70;55.20;;;;;;5014480;28;20026;-72
2023/04/03 01:18:30;;;;;;;4.68;3.65;;;20.70;55.10;;;;;;5014122;28;20112;-72
2023/04/03 01:21:24;;;;;;;6.20;3.90;;;20.70;55.10;;;;;;5014264;28;20483;-73
2023/04/03 01:24:11;;;;;;;5.13;3.65;;;20.70;55.00;;;;;;5014329;28;20084;-72
2023/04/03 01:26:37;;;;;;;5.75;4.10;;;20.60;54.90;;;;;;5014161;28;20030;-72
2023/04/03 01:29:04;;;;;;;5.30;3.70;;;20.60;55.00;;;;;;5014067;28;20022;-73
2023/04/03 01:31:51;;;;;;;4.95;3.42;;;20.70;54.90;;;;;;5013485;28;20037;-73
2023/04/03 01:34:17;;;;;;;4.68;3.60;;;20.70;54.80;;;;;;5013891;28;20042;-73
2023/04/03 01:36:43;;;;;;;5.68;3.67;;;20.70;54.90;;;;;;5013897;28;20026;-73
2023/04/03 01:39:09;;;;;;;5.45;3.60;;;20.60;54.80;;;;;;5013770;28;20109;-73
2023/04/03 01:41:35;;;;;;;5.30;3.60;;;20.60;54.80;;;;;;5013363;28;20030;-73
2023/04/03 01:44:00;;;;;;;4.90;3.70;;;20.60;54.80;;;;;;5013723;28;20034;-73
2023/04/03 01:46:26;;;;;;;4.38;3.45;;;20.60;54.70;;;;;;5014026;28;20037;-73
2023/04/03 01:48:52;;;;;;;5.82;3.83;;;20.60;54.70;;;;;;5013730;28;20030;-73
2023/04/03 01:51:19;;;;;;;5.55;3.42;;;20.60;54.60;;;;;;5013674;28;20060;-73
2023/04/03 01:53:45;;;;;;;5.45;4.15;;;20.60;54.60;;;;;;5013637;28;20455;-73
2023/04/03 01:56:11;;;;;;;5.57;3.70;;;20.60;54.60;;;;;;5013532;28;20408;-73
2023/04/03 01:58:37;;;;;;;4.90;3.63;;;20.60;54.50;;;;;;5013399;28;20480;-72
2023/04/03 02:01:03;;;;;;;4.60;3.42;;;20.60;54.50;;;;;;5013776;28;20044;-73
2023/04/03 02:03:29;;;;;;;5.97;3.78;;;20.60;54.50;;;;;;5013280;28;20053;-73
2023/04/03 02:05:55;;;;;;;5.40;3.97;;;20.60;54.40;;;;;;5013685;28;20469;-73
2023/04/03 02:08:21;;;;;;;5.35;3.80;;;20.60;54.30;;;;;;5013345;28;20078;-73
2023/04/03 02:10:48;;;;;;;5.30;3.45;;;20.60;54.30;;;;;;5013190;28;20034;-73
2023/04/03 02:13:15;;;;;;;6.53;4.15;;;20.60;54.30;;;;;;5013389;28;20042;-73
2023/04/03 02:15:41;;;;;;;5.13;3.58;;;20.50;54.30;;;;;;5013194;28;20403;-73
2023/04/03 02:18:07;;;;;;;5.80;3.92;;;20.50;54.20;;;;;;5013621;28;20026;-72
2023/04/03 02:20:33;;;;;;;4.93;3.63;;;20.50;54.20;;;;;;5013124;28;20512;-73
2023/04/03 02:22:59;;;;;;;4.60;3.67;;;20.50;54.10;;;;;;5013295;28;20022;-73
2023/04/03 02:25:25;;;;;;;4.55;3.40;;;20.50;54.10;;;;;;5013055;28;20030;-73
2023/04/03 02:27:51;;;;;;;5.40;3.85;;;20.50;54.00;;;;;;5013071;28;20048;-73
2023/04/03 02:30:17;;;;;;;4.50;3.38;;;20.50;54.00;;;;;;5013164;28;20058;-73
2023/04/03 02:32:43;;;;;;;4.45;3.30;;;20.50;54.00;;;;;;5013096;28;20034;-73
2023/04/03 02:35:11;;;;;;;5.00;3.60;;;20.50;53.90;;;;;;5012998;28;20018;-73
2023/04/03 02:37:37;;;;;;;5.00;3.70;;;20.50;53.90;;;;;;5013166;28;20032;-73
2023/04/03 02:40:05;;;;;;;6.13;3.42;;;20.50;53.90;;;;;;5013018;28;20029;-74
2023/04/03 02:42:30;;;;;;;4.78;3.60;;;20.40;53.90;;;;;;5012921;28;20029;-73
2023/04/03 02:44:56;;;;;;;4.25;3.67;;;20.50;53.90;;;;;;5012719;28;20131;-74
2023/04/03 02:47:22;;;;;;;5.05;3.60;;;20.50;53.80;;;;;;5016952;28;20436;-73
2023/04/03 02:49:48;;;;;;;3.70;3.13;;;20.40;53.80;;;;;;5016984;28;20057;-73
2023/04/03 02:52:14;;;;;;;4.30;3.60;;;20.40;53.80;;;;;;5016866;28;20484;-73
2023/04/03 02:54:40;;;;;;;4.05;3.00;;;20.40;53.80;;;;;;5016846;28;20506;-73
2023/04/03 02:57:08;;;;;;;4.88;3.58;;;20.40;53.80;;;;;;5016874;28;20438;-73
2023/04/03 02:59:40;;;;;;;4.65;3.30;;;20.40;53.80;;;;;;5017006;28;20048;-73
2023/04/03 03:02:07;;;;;;;3.85;3.10;;;20.40;53.80;;;;;;5016894;28;20458;-73
2023/04/03 03:04:33;;;;;;;4.57;3.00;;;20.40;53.80;;;;;;5016688;28;20053;-73
2023/04/03 03:06:59;;;;;;;5.00;2.90;;;20.40;53.90;;;;;;5016842;28;20034;-73
2023/04/03 03:09:26;;;;;;;3.83;2.92;;;20.40;53.90;;;;;;5016524;28;20014;-73
2023/04/03 03:11:53;;;;;;;4.78;3.10;;;20.40;53.90;;;;;;5016349;28;20487;-73
2023/04/03 03:14:19;;;;;;;3.53;2.83;;;20.40;53.90;;;;;;5016687;28;20133;-73
2023/04/03 03:16:45;;;;;;;4.05;2.90;;;20.40;53.90;;;;;;5016422;28;20104;-73
2023/04/03 03:19:11;;;;;;;4.47;3.15;;;20.40;53.90;;;;;;5016497;28;20114;-73
2023/04/03 03:21:37;;;;;;;4.43;3.30;;;20.40;53.90;;;;;;5016165;28;20026;-73
2023/04/03 03:24:02;;;;;;;3.63;3.00;;;20.40;53.90;;;;;;5016191;28;20056;-73
2023/04/03 03:26:29;;;;;;;3.05;2.75;;;20.40;53.80;;;;;;5016340;28;20109;-73
2023/04/03 03:28:55;;;;;;;3.65;2.60;;;20.40;53.80;;;;;;5016363;28;20014;-73
2023/04/03 03:31:21;;;;;;;3.50;2.72;;;20.40;53.80;;;;;;5016120;28;20492;-73
2023/04/03 03:33:47;;;;;;;4.85;2.97;;;20.40;53.70;;;;;;5016183;28;20096;-73
2023/04/03 03:36:14;;;;;;;3.78;2.83;;;20.40;53.70;;;;;;5016150;28;20046;-73
2023/04/03 03:38:40;;;;;;;3.45;2.70;;;20.40;53.60;;;;;;5006086;28;20030;-74
2023/04/03 03:41:05;;;;;;;4.22;2.85;;;20.40;53.60;;;;;;5013687;28;20033;-73
2023/04/03 03:43:32;;;;;;;4.68;3.08;;;20.40;53.50;;;;;;5015939;28;20022;-73
2023/04/03 03:45:58;;;;;;;3.92;2.75;;;20.40;53.50;;;;;;5016160;28;20034;-73
2023/04/03 03:48:25;;;;;;;3.35;2.42;;;20.40;53.50;;;;;;5015968;28;20025;-73
2023/04/03 03:50:51;;;;;;;4.07;2.85;;;20.40;53.40;;;;;;5014720;28;20034;-73
2023/04/03 03:53:17;;;;;;;3.95;2.85;;;20.40;53.40;;;;;;4996277;28;20373;-74
2023/04/03 03:55:43;;;;;;;3.45;2.45;;;20.40;53.40;;;;;;4996089;28;20076;-73
2023/04/03 03:58:09;;;;;;;4.15;2.60;;;20.40;53.30;;;;;;4995883;28;20030;-73
2023/04/03 04:00:35;;;;;;;3.08;2.50;;;20.40;53.30;;;;;;4999419;28;20407;-72
2023/04/03 04:03:01;;;;;;;2.47;2.28;;;20.40;53.30;;;;;;5015625;28;20163;-73
2023/04/03 04:05:27;;;;;;;5.78;2.60;;;20.40;53.20;;;;;;5015408;28;20033;-73
2023/04/03 04:07:53;;;;;;;3.53;2.45;;;20.40;53.20;;;;;;5015606;28;20099;-73
2023/04/03 04:10:19;;;;;;;3.10;2.72;;;20.40;53.20;;;;;;5015376;28;20085;-73
2023/04/03 04:12:44;;;;;;;3.03;2.33;;;20.40;53.10;;;;;;5015204;28;20141;-73
2023/04/03 04:15:11;;;;;;;2.97;2.45;;;20.40;53.10;;;;;;5015591;28;20201;-73
2023/04/03 04:17:37;;;;;;;2.95;2.50;;;20.30;53.00;;;;;;5015611;28;20054;-73
2023/04/03 04:20:04;;;;;;;2.90;2.20;;;20.30;53.00;;;;;;5015099;28;20033;-73
2023/04/03 04:22:31;;;;;;;3.80;2.78;;;20.30;52.90;;;;;;5015284;28;20026;-73
2023/04/03 04:24:57;;;;;;;2.28;2.08;;;20.30;52.90;;;;;;5015226;28;20030;-73
2023/04/03 04:27:23;;;;;;;2.28;2.08;;;20.30;52.80;;;;;;5015271;28;20036;-73
2023/04/03 04:29:49;;;;;;;3.58;2.60;;;20.30;52.80;;;;;;5015147;28;20022;-72
2023/04/03 04:32:15;;;;;;;4.28;2.70;;;20.20;52.80;;;;;;5015164;28;20030;-73
2023/04/03 04:34:40;;;;;;;3.50;2.67;;;20.20;52.70;;;;;;5015305;28;20039;-73
2023/04/03 04:37:06;;;;;;;3.10;2.63;;;20.20;52.70;;;;;;5014999;28;20030;-73
2023/04/03 04:39:32;;;;;;;3.92;2.78;;;20.20;52.70;;;;;;5013774;28;20084;-73
2023/04/03 04:41:58;;;;;;;3.85;2.70;;;20.20;52.60;;;;;;5014950;28;20382;-73
2023/04/03 04:44:25;;;;;;;3.50;2.75;;;20.20;52.60;;;;;;5014803;28;20053;-73
2023/04/03 04:46:50;;;;;;;4.05;2.90;;;20.20;52.60;;;;;;5101930;22;20673;-72
2023/04/03 04:49:16;;;;;;;4.35;2.53;;;20.20;52.50;;;;;;5010594;28;20402;-73
2023/04/03 04:51:42;;;;;;;2.85;2.55;;;20.20;52.50;;;;;;5014289;28;20033;-74
2023/04/03 04:54:08;;;;;;;4.15;2.70;;;20.20;52.50;;;;;;5014666;28;20132;-73
2023/04/03 04:56:34;;;;;;;3.95;3.00;;;20.20;52.50;;;;;;5014507;28;20121;-72
2023/04/03 04:59:00;;;;;;;4.32;2.38;;;20.10;52.40;;;;;;5014674;28;20117;-88
2023/04/03 05:01:25;;;;;;;2.80;2.47;;;20.20;52.40;;;;;;5014374;28;20025;-74
2023/04/03 05:03:51;;;;;;;3.60;2.75;;;20.10;52.40;;;;;;5019865;28;20030;-75
2023/04/03 05:06:18;;;;;;;4.72;2.60;;;20.10;52.40;;;;;;5014462;28;20030;-73
2023/04/03 05:08:44;;;;;;;4.57;2.90;;;20.20;52.60;;;;;;5013816;28;20033;-73
2023/04/03 05:11:11;;;;;;;4.70;3.08;;;20.20;52.60;;;;;;5014494;28;20514;-73
2023/04/03 05:13:37;;;;;;;4.38;2.70;;;20.10;52.60;;;;;;5014308;28;20022;-74
2023/04/03 05:16:04;;;;;;;4.47;2.53;;;20.10;52.50;;;;;;5014340;28;20372;-74
2023/04/03 05:18:29;;;;;;;4.80;2.40;;;20.10;52.50;;;;;;5013051;28;20057;-75
2023/04/03 05:20:56;;;;;;;5.35;2.70;;;20.10;52.40;;;;;;5023818;28;20402;-79
2023/04/03 05:23:22;;;;;;;3.75;2.60;;;20.10;52.40;;;;;;5017618;28;20029;-74
2023/04/03 05:25:48;;;;;;;3.83;2.33;;;20.10;52.40;;;;;;5006397;28;20061;-74
2023/04/03 05:28:14;;;;;;;5.03;2.30;;;20.10;52.50;;;;;;5008188;28;20500;-73
2023/04/03 05:30:40;;;;;;;5.35;2.40;;;20.20;52.60;;;;;;5013315;28;20044;-73
2023/04/03 05:33:06;;;;;;;5.07;2.30;;;20.10;52.70;;;;;;5012613;28;20026;-73
2023/04/03 05:35:32;;;;;;;5.97;2.60;;;20.10;52.50;;;;;;5013952;28;20061;-73
2023/04/03 05:37:58;;;;;;;6.85;2.50;;;20.10;52.50;;;;;;5010168;28;20058;-72
2023/04/03 05:40:25;;;;;;;6.47;3.20;;;20.10;52.60;;;;;;4993515;28;20173;-73
2023/04/03 05:42:51;;;;;;;6.30;2.67;;;20.20;52.30;;;;;;5013041;28;20029;-72
2023/04/03 05:45:18;;;;;;;6.57;2.60;;;20.20;52.30;;;;;;5012592;28;20054;-72
2023/04/03 05:47:44;;;;;;;5.18;2.80;;;20.10;52.20;;;;;;5011696;28;20042;-72
2023/04/03 05:50:10;;;;;;;4.53;2.17;;;20.20;52.20;;;;;;5012608;28;20026;-73
2023/04/03 05:52:40;;;;;;;6.03;2.50;;;20.10;52.30;;;;;;5013422;28;20107;-81
2023/04/03 05:55:07;;;;;;;4.07;2.50;;;20.20;52.00;;;;;;5013654;28;20040;-79
2023/04/03 05:57:33;;;;;;;5.45;2.53;;;20.10;52.00;;;;;;5013443;28;20105;-80
2023/04/03 05:59:59;;;;;;;4.90;2.50;;;20.00;52.10;;;;;;5013112;28;20032;-82
2023/04/03 06:02:26;;;;;;;4.00;2.40;;;20.00;52.20;;;;;;5013649;28;20022;-80
2023/04/03 06:04:51;;;;;;;4.78;1.95;;;20.00;52.20;;;;;;5013537;28;20022;-80
2023/04/03 06:07:22;;;;;;;3.83;2.22;;;20.00;52.20;;;;;;5013677;28;20116;-72
2023/04/03 06:09:48;;;;;;;5.32;2.28;;;20.00;52.20;;;;;;5013726;28;20022;-75
2023/04/03 06:12:14;;;;;;;8.77;2.35;;;20.10;52.30;;;;;;5013466;28;20018;-76
2023/04/03 06:14:40;;;;;;;4.70;2.42;;;20.10;52.20;;;;;;5013607;28;20024;-76
2023/04/03 06:17:08;;;;;;;3.60;2.08;;;20.10;52.20;;;;;;5013494;28;20053;-75
2023/04/03 06:19:34;;;;;;;4.85;2.20;;;20.10;52.20;;;;;;5012461;28;20022;-75
2023/04/03 06:22:01;;;;;;;6.55;2.20;;;20.10;52.20;;;;;;5013766;28;20057;-75
2023/04/03 06:24:27;;;;;;;3.22;1.90;;;20.10;52.10;;;;;;5013370;28;20410;-76
2023/04/03 06:26:53;;;;;;;4.03;2.03;;;20.10;52.20;;;;;;5013335;28;20026;-77
2023/04/03 06:29:20;;;;;;;2.90;2.10;;;20.10;52.20;;;;;;5013696;28;20026;-74
2023/04/03 06:31:46;;;;;;;5.40;2.35;;;20.10;52.20;;;;;;5013423;28;20030;-74
2023/04/03 06:34:12;;;;;;;3.78;2.40;;;20.20;52.20;;;;;;5013255;28;20022;-75
2023/04/03 06:36:39;;;;;;;3.47;1.98;;;20.10;52.30;;;;;;5013251;28;20049;-76
2023/04/03 06:39:05;;;;;;;2.38;2.03;;;20.10;52.20;;;;;;5013236;28;20427;-75
2023/04/03 06:41:31;;;;;;;4.80;2.00;;;20.20;52.30;;;;;;5013182;28;20026;-75
2023/04/03 06:43:58;;;;;;;3.92;2.20;;;20.20;52.40;;;;;;5013156;28;20038;-75
2023/04/03 06:46:27;;;;;;;4.47;2.15;;;20.20;52.30;;;;;;5013478;28;20014;-76
2023/04/03 06:48:53;;;;;;;3.00;2.17;;;20.20;52.20;;;;;;5013127;28;20046;-77
2023/04/03 06:51:30;;;;;;;5.97;2.20;;;20.20;52.20;;;;;;5013387;28;20034;-78
2023/04/03 06:53:58;;;;;;;4.07;1.88;;;20.30;52.20;;;;;;5013230;28;20028;-75
2023/04/03 06:56:26;;;;;;;2.97;1.83;;;20.20;52.30;;;;;;5013145;28;20026;-74
2023/04/03 06:58:54;;;;;;;2.30;1.70;;;20.20;52.30;;;;;;5013189;28;20053;-75
2023/04/03 07:01:20;;;;;;;2.42;1.98;;;20.30;52.30;;;;;;5013058;28;20018;-74
2023/04/03 07:03:48;;;;;;;3.47;2.20;;;20.30;52.30;;;;;;5012905;28;20026;-74
2023/04/03 07:06:16;;;;;;;3.97;1.95;;;20.20;52.20;;;;;;5013009;28;20438;-75
2023/04/03 07:08:43;;;;;;;2.47;1.85;;;20.30;52.20;;;;;;5013041;28;20026;-75
2023/04/03 07:11:11;;;;;;;3.03;1.90;;;20.30;52.30;;;;;;5013667;28;20495;-76
2023/04/03 07:13:38;;;;;;;3.03;1.67;;;20.30;52.30;;;;;;5013464;28;20714;-76
2023/04/03 07:16:05;;;;;;;3.10;1.92;;;20.30;52.40;;;;;;5012938;28;20439;-76
2023/04/03 07:18:32;;;;;;;5.13;2.20;;;20.40;52.30;;;;;;5012802;28;20049;-74
2023/04/03 07:20:59;;;;;;;5.72;2.20;;;20.30;52.10;;;;;;5020859;28;20010;-75
2023/04/03 07:23:25;;;;;;;2.65;1.90;;;20.30;52.00;;;;;;5012974;28;20025;-74
2023/04/03 07:28:27;;;;;;;5.22;2.15;;;20.30;51.90;;;;;;4969963;23;20466;-73
2023/04/03 07:31:03;;;;;;;2.35;2.00;;;20.30;51.80;;;;;;4954448;28;20031;-73
2023/04/03 07:33:29;;;;;;;2.65;2.25;;;20.30;51.90;;;;;;4958112;29;20027;-74
2023/04/03 07:35:55;;;;;;;6.03;2.42;;;20.20;51.90;;;;;;4957896;28;20158;-74
2023/04/03 07:38:21;;;;;;;3.83;2.05;;;20.20;51.80;;;;;;4957807;28;20122;-73
2023/04/03 07:40:52;;;;;;;3.35;2.10;;;20.20;51.80;;;;;;4957934;28;20027;-71
2023/04/03 07:43:19;;;;;;;6.25;2.17;;;20.20;51.70;;;;;;4958011;29;20030;-74
2023/04/03 07:45:49;;;;;;;5.60;1.88;;;20.20;51.80;;;;;;4957720;28;20385;-74
2023/04/03 07:48:17;;;;;;;3.55;2.05;;;20.10;51.80;;;;;;4957726;28;20054;-74
2023/04/03 07:50:43;;;;;;;6.18;2.05;;;20.10;51.80;;;;;;4956402;29;20027;-74
2023/04/03 07:53:10;;;;;;;3.40;2.35;;;20.10;51.70;;;;;;4957572;28;20107;-72
2023/04/03 07:55:42;;;;;;;4.65;2.15;;;20.10;51.70;;;;;;4957546;28;20418;-72
2023/04/03 07:58:18;;;;;;;6.68;2.10;;;20.10;51.70;;;;;;4957730;28;20020;-72
2023/04/03 08:00:44;;;;;;;3.20;1.90;;;20.00;51.60;;;;;;4957120;29;20038;-72
2023/04/03 08:03:11;;;;;;;4.43;1.90;;;20.00;51.40;;;;;;4957223;28;20031;-72
2023/04/03 08:05:39;;;;;;;2.88;1.73;;;20.00;51.60;;;;;;4957373;29;20115;-72
2023/04/03 08:08:06;;;;;;;2.28;1.60;;;20.00;51.70;;;;;;4957229;28;20371;-72
2023/04/03 08:10:32;;;;;;;4.25;1.65;;;20.00;51.80;;;;;;4957160;28;20409;-72
2023/04/03 08:12:58;;;;;;;3.55;1.88;;;20.00;51.80;;;;;;4957230;28;20035;-72
2023/04/03 08:15:24;;;;;;;2.67;1.63;;;20.10;51.80;;;;;;4957094;28;20489;-72
2023/04/03 08:17:50;;;;;;;2.83;1.80;;;20.10;51.80;;;;;;4956869;28;20087;-72
2023/04/03 08:20:17;;;;;;;2.22;1.60;;;20.10;51.80;;;;;;4957079;28;20054;-69
2023/04/03 08:22:42;;;;;;;5.40;1.90;;;20.20;51.80;;;;;;4956980;29;20055;-75
2023/04/03 08:25:10;;;;;;;7.05;2.00;;;20.10;51.80;;;;;;4956861;28;20042;-74
2023/04/03 08:30:15;;;;;;;4.10;1.45;;;20.20;51.80;;;;;;5194481;23;20397;-72
2023/04/03 08:32:42;;;;;;;2.58;1.52;;;20.30;51.80;;;;;;4956783;29;20535;-73
2023/04/03 08:35:08;;;;;;;2.33;1.42;;;20.30;51.70;;;;;;4957008;28;20019;-73
2023/04/03 08:37:37;;;;;;;4.10;1.80;;;20.30;51.60;;;;;;4956645;28;20477;-73
2023/04/03 08:40:05;;;;;;;2.55;1.38;;;20.30;51.60;;;;;;4956825;28;20027;-73
2023/04/03 08:42:40;;;;;;;3.85;1.48;;;20.40;51.60;;;;;;4956974;28;20122;-73
2023/04/03 08:45:13;;;;;;;2.55;1.70;;;20.30;51.50;;;;;;4956652;28;20041;-72
2023/04/03 08:47:42;;;;;;;4.35;2.00;;;20.40;51.50;;;;;;4956983;28;20031;-72
2023/04/03 08:50:21;;;;;;;2.90;1.40;;;20.40;51.50;;;;;;4956739;28;20033;-72
2023/04/03 08:52:58;;;;;;;3.30;1.63;;;20.40;51.40;;;;;;4952721;29;20497;-72
2023/04/03 08:55:48;;;;;;;4.75;1.90;;;20.40;51.30;;;;;;4956469;28;20047;-75
2023/04/03 08:58:29;;;;;;;3.60;1.90;;;20.40;51.50;;;;;;4956215;29;20043;-74
2023/04/03 09:01:00;;;;;;;2.70;1.42;;;20.40;51.30;;;;;;4956499;28;20027;-74
2023/04/03 09:03:30;;;;;;;2.50;1.35;;;20.40;51.40;;;;;;4956441;28;20477;-74
2023/04/03 09:06:21;;;;;;;1.77;1.30;;;20.40;51.40;;;;;;4956245;28;20031;-74
2023/04/03 09:09:15;;;;;;;3.53;1.60;;;20.40;51.30;;;;;;4956523;28;20136;-74
2023/04/03 09:12:05;;;;;;;1.85;1.25;;;20.40;51.40;;;;;;4956250;28;20494;-81
2023/04/03 09:14:41;;;;;;;1.38;1.20;;;20.40;51.50;;;;;;4956272;28;20034;-81
2023/04/03 09:17:45;;;;;;;2.38;1.50;;;20.40;51.40;;;;;;4956248;28;20529;-81
2023/04/03 09:20:21;;;;;;;4.45;1.50;;;20.40;51.10;;;;;;4956097;28;20070;-72
2023/04/03 09:22:48;;;;;;;2.45;1.55;;;20.40;51.40;;;;;;4956121;29;20054;-74
2023/04/03 09:25:21;;;;;;;4.40;1.70;;;20.30;51.30;;;;;;4956263;28;20031;-73
2023/04/03 09:27:48;;;;;;;2.95;1.52;;;20.40;51.20;;;;;;4955834;28;20074;-74
2023/04/03 09:30:23;;;;;;;2.15;1.50;;;20.30;51.20;;;;;;4955712;28;20113;-72
2023/04/03 09:32:54;;;;;;;2.47;1.70;;;20.40;51.20;;;;;;4955301;28;20032;-72
2023/04/03 09:35:24;;;;;;;2.85;1.90;;;20.40;51.20;;;;;;4955827;28;20111;-73
2023/04/03 09:37:59;;;;;;;2.30;1.48;;;20.40;51.10;;;;;;4955814;28;20504;-73
2023/04/03 09:40:25;;;;;;;3.53;1.90;;;20.30;51.00;;;;;;4955741;28;20019;-73
2023/04/03 09:42:52;;;;;;;2.15;1.45;;;20.30;50.90;;;;;;4955684;28;20030;-72
2023/04/03 09:45:31;;;;;;;3.72;1.73;;;20.30;50.90;;;;;;4955589;28;20052;-72
2023/04/03 09:48:24;;;;;;;3.50;1.90;;;20.30;50.80;;;;;;4955547;28;20071;-72
2023/04/03 09:50:50;;;;;;;1.75;1.60;;;20.30;50.60;;;;;;4953868;28;20552;-74
2023/04/03 09:53:41;;;;;;;3.13;1.67;;;20.30;50.80;;;;;;4955486;29;20035;-74
2023/04/03 09:56:16;;;;;;;3.22;1.70;;;20.30;50.60;;;;;;4955142;28;20027;-73
2023/04/03 09:59:07;;;;;;;2.97;1.70;;;20.30;50.70;;;;;;4955783;29;20027;-74
2023/04/03 10:01:34;;;;;;;2.63;1.50;;;20.20;50.80;;;;;;4950427;28;20039;-75
2023/04/03 10:04:06;;;;;;;3.10;1.40;;;20.20;50.70;;;;;;4955208;28;20101;-74
2023/04/03 10:06:37;;;;;;;1.48;1.38;;;20.30;50.90;;;;;;4955381;29;20027;-74
2023/04/03 10:09:06;;;;;;;1.92;1.30;;;20.30;51.00;;;;;;4955395;28;20033;-74
2023/04/03 10:11:32;;;;;;;2.72;1.50;;;20.20;50.90;;;;;;4955381;29;20027;-74
2023/04/03 10:14:03;;;;;;;2.45;1.67;;;20.30;50.90;;;;;;4955147;28;20373;-74
2023/04/03 10:17:09;;;;;;;3.03;1.98;;;20.30;51.00;;;;;;4955222;28;20481;-74
2023/04/03 10:20:03;;;;;;;1.98;1.77;;;20.30;50.60;;;;;;4955031;29;20086;-74
2023/04/03 10:22:43;;;;;;;2.35;1.65;;;20.30;50.80;;;;;;4877326;29;20116;-74
2023/04/03 10:25:25;;;;;;;2.00;1.77;;;20.30;50.70;;;;;;4877525;29;20118;-74
2023/04/03 10:28:09;;;;;;;2.45;1.58;;;20.20;50.60;;;;;;4877423;29;20033;-74
2023/04/03 10:31:06;;;;;;;2.80;2.00;;;20.30;50.50;;;;;;4875583;29;20092;-74
2023/04/03 10:33:36;;;;;;;3.53;1.35;;;20.20;50.50;;;;;;4877466;29;20025;-74
2023/04/03 10:36:31;;;;;;;1.55;1.20;;;20.20;50.60;;;;;;4877474;29;20032;-74
2023/04/03 10:39:01;;;;;;;2.72;1.55;;;20.20;50.70;;;;;;4877398;29;20048;-74
2023/04/03 10:41:42;;;;;;;2.95;1.77;;;20.20;50.60;;;;;;4877258;29;20033;-73
2023/04/03 10:44:50;;;;;;;1.30;1.20;;;20.20;50.50;;;;;;4877241;29;20431;-76
2023/04/03 10:47:21;;;;;;;2.45;1.50;;;20.20;50.60;;;;;;4822065;29;20046;-76
2023/04/03 10:50:10;;;;;;;1.60;1.30;;;20.20;50.50;;;;;;4819858;29;20041;-76
2023/04/03 10:52:47;;;;;;;1.55;1.33;;;20.20;50.60;;;;;;4822245;29;20070;-75
2023/04/03 10:55:13;;;;;;;2.03;1.60;;;20.20;50.60;;;;;;4819670;29;20050;-75
2023/04/03 10:57:41;;;;;;;2.22;1.48;;;20.20;50.70;;;;;;4821941;29;20494;-75
2023/04/03 11:00:20;;;;;;;1.55;1.23;;;20.20;50.70;;;;;;4914628;29;20028;-75
2023/04/03 11:02:53;;;;;;;2.53;1.75;;;20.30;50.70;;;;;;4914783;29;20036;-75
2023/04/03 11:05:29;;;;;;;2.88;1.98;;;20.20;50.80;;;;;;4914477;29;20090;-75
2023/04/03 11:08:00;;;;;;;6.07;2.58;;;20.30;50.60;;;;;;4917652;29;20040;-75
2023/04/03 11:10:44;;;;;;;2.28;2.08;;;20.30;50.50;;;;;;4918325;29;20029;-75
2023/04/03 11:13:36;;;;;;;2.42;1.65;;;20.20;50.40;;;;;;4918322;29;20042;-75
2023/04/03 11:16:03;;;;;;;1.73;1.55;;;20.20;50.50;;;;;;4906036;29;20533;-75
2023/04/03 11:18:48;;;;;;;1.77;1.40;;;20.20;50.60;;;;;;4920264;29;20086;-73
2023/04/03 11:21:21;;;;;;;1.83;1.60;;;20.20;50.60;;;;;;4935737;29;20034;-75
2023/04/03 11:23:49;;;;;;;3.50;1.60;;;20.20;50.70;;;;;;4956601;28;20039;-76
2023/04/03 11:26:21;;;;;;;1.85;1.55;;;20.30;50.80;;;;;;4957851;28;20020;-80
2023/04/03 11:28:56;;;;;;;3.53;1.80;;;20.30;50.60;;;;;;4965815;28;20069;-73
2023/04/03 11:31:31;;;;;;;6.30;2.00;;;20.30;50.50;;;;;;4957799;29;20162;-84
2023/04/03 11:34:06;;;;;;;3.63;1.65;;;20.30;50.50;;;;;;4956986;29;20057;-73
2023/04/03 11:36:45;;;;;;;3.00;1.65;;;20.30;50.40;;;;;;4955655;29;20027;-79
2023/04/03 11:39:33;;;;;;;3.80;1.45;;;20.30;50.50;;;;;;4955196;28;20031;-73
2023/04/03 11:42:42;;;;;;;1.45;1.33;;;20.30;50.70;;;;;;4951019;29;20103;-75
2023/04/03 11:45:23;;;;;;;1.83;1.60;;;20.30;50.80;;;;;;4949591;29;20090;-77
2023/04/03 11:47:54;;;;;;;3.28;2.13;;;20.30;50.60;;;;;;4957699;28;20114;-74
2023/04/03 11:50:38;;;;;;;9.07;2.63;;;20.30;49.50;;;;;;4957659;28;20027;-74
2023/04/03 11:53:07;;;;;;;2.45;1.83;;;20.10;48.00;;;;;;4957835;28;20143;-75
2023/04/03 11:55:32;;;;;;;5.50;1.95;;;19.90;49.20;;;;;;4957591;28;20020;-74
2023/04/03 11:57:58;;;;;;;3.67;1.75;;;19.90;49.60;;;;;;4957672;28;20050;-79
2023/04/03 12:00:43;;;;;;;1.63;1.50;;;19.90;50.00;;;;;;4957470;28;20027;-73
2023/04/03 12:06:05;;;;;;;3.55;1.63;;;19.90;50.30;;;;;;4957711;28;20047;-74
2023/04/03 12:08:34;;;;;;;1.98;1.63;;;19.90;50.20;;;;;;4957425;28;20039;-75
2023/04/03 12:11:08;;;;;;;3.65;2.15;;;20.00;50.30;;;;;;4957471;28;20019;-75
2023/04/03 12:13:41;;;;;;;3.85;2.10;;;20.00;50.20;;;;;;4957576;28;20504;-75
2023/04/03 12:16:22;;;;;;;2.53;1.30;;;20.00;50.10;;;;;;4957218;28;20038;-76
2023/04/03 12:19:15;;;;;;;3.80;1.50;;;20.00;50.10;;;;;;4956464;28;20020;-82
2023/04/03 12:21:47;;;;;;;2.85;1.80;;;20.10;49.80;;;;;;4957391;28;20023;-75
2023/04/03 12:24:15;;;;;;;2.83;2.17;;;20.10;50.10;;;;;;4957158;28;20019;-74
2023/04/03 12:26:48;;;;;;;3.05;1.85;;;20.10;50.00;;;;;;4957345;28;20058;-72
2023/04/03 12:29:25;;;;;;;5.55;2.42;;;20.10;49.90;;;;;;4956783;28;20047;-75
2023/04/03 12:32:10;;;;;;;4.85;1.98;;;20.00;49.70;;;;;;4957009;28;20023;-74
2023/04/03 12:34:57;;;;;;;5.85;1.88;;;20.00;49.40;;;;;;4957107;28;20051;-73
2023/04/03 12:38:21;;;;;;;3.13;1.63;;;20.00;49.50;;;;;;4956845;28;20524;-75
2023/04/03 12:40:53;;;;;;;2.10;1.42;;;20.00;49.70;;;;;;4916819;29;20028;-75
2023/04/03 12:43:39;;;;;;;3.60;1.65;;;20.00;50.00;;;;;;4916610;29;20073;-76
2023/04/03 12:46:08;;;;;;;5.15;1.40;;;20.10;49.80;;;;;;4916570;29;20048;-77
2023/04/03 12:48:56;;;;;;;2.42;1.50;;;20.10;50.10;;;;;;4916473;29;20047;-75
2023/04/03 12:51:34;;;;;;;4.22;1.60;;;20.10;49.80;;;;;;4916480;29;20115;-75
2023/04/03 12:54:13;;;;;;;3.60;1.90;;;20.20;50.00;;;;;;4916673;29;20107;-76
2023/04/03 12:56:39;;;;;;;2.70;1.70;;;20.10;49.90;;;;;;4916309;29;20081;-75
2023/04/03 12:59:16;;;;;;;1.80;1.70;;;20.20;49.80;;;;;;4916183;29;20045;-75
2023/04/03 13:01:42;;;;;;;2.80;1.60;;;20.10;49.70;;;;;;4916390;29;20032;-76
2023/04/03 13:04:12;;;;;;;3.38;1.80;;;20.10;49.70;;;;;;4915980;29;20020;-75
2023/04/03 13:06:43;;;;;;;3.95;2.00;;;20.10;49.80;;;;;;4916178;29;20506;-76
2023/04/03 13:09:36;;;;;;;2.70;1.60;;;20.10;49.20;;;;;;4916120;29;20028;-74
2023/04/03 13:12:15;;;;;;;3.30;1.80;;;20.00;48.80;;;;;;4942548;29;20035;-75
2023/04/03 13:14:52;;;;;;;2.80;1.60;;;20.00;49.30;;;;;;4956230;28;20481;-74